Terminal Aerodrome Forecast
Issued by NWS Wilmington, NC

Home | Current Version | Previous Version | Text Only | Print | Product List | Glossary On
Versions: 1 2 3 4 5 6 7 8 9 10 11 12 13
000
FTUS42 KILM 291120
TAFFLO
TAF
KFLO 291120Z 2912/3012 03009KT 5SM -SHRA BR BKN008 OVC015
     FM291300 08008KT 6SM -SHRA BKN015
     FM291700 08008KT 6SM -SHRA BKN025
     FM300000 02004KT 6SM -SHRA SCT006 BKN015=

USA.gov is the U.S. government's official web portal to all federal, state and local government web resources and services.